createdAt,value
2023-01-05T00:00:17.383Z,-10.30
2023-01-05T00:02:24.231Z,-10.28
2023-01-05T00:04:27.415Z,-10.25
2023-01-05T00:06:30.417Z,-10.28
2023-01-05T00:08:37.150Z,-10.29
2023-01-05T00:10:58.971Z,-10.26
2023-01-05T00:13:20.023Z,-10.27
2023-01-05T00:15:40.912Z,-10.33
2023-01-05T00:18:02.139Z,-10.30
2023-01-05T00:20:25.378Z,-10.27
2023-01-05T00:22:32.230Z,-10.29
2023-01-05T00:24:34.664Z,-10.28
2023-01-05T00:26:37.174Z,-10.29
2023-01-05T00:28:39.668Z,-10.27
2023-01-05T00:30:44.769Z,-10.27
2023-01-05T00:32:47.789Z,-10.30
2023-01-05T00:34:50.969Z,-10.31
2023-01-05T00:36:53.465Z,-10.30
2023-01-05T00:38:56.297Z,-10.33
2023-01-05T00:40:58.726Z,-10.31
2023-01-05T00:43:01.225Z,-10.34
2023-01-05T00:45:05.766Z,-10.31
2023-01-05T00:47:08.302Z,-10.32
2023-01-05T00:49:10.849Z,-10.34
2023-01-05T00:51:13.353Z,-10.36
2023-01-05T00:53:15.869Z,-10.32
2023-01-05T00:55:18.479Z,-10.32
2023-01-05T00:57:20.975Z,-10.33
2023-01-05T00:59:23.476Z,-10.31
2023-01-05T01:01:26.081Z,-10.32
2023-01-05T01:03:28.656Z,-10.31
2023-01-05T01:05:31.095Z,-10.29
2023-01-05T01:07:33.628Z,-10.25
2023-01-05T01:09:37.446Z,-10.26
2023-01-05T01:11:40.487Z,-10.23
2023-01-05T01:13:45.162Z,-10.21
2023-01-05T01:15:47.658Z,-10.21
2023-01-05T01:17:50.162Z,-10.22
2023-01-05T01:19:52.635Z,-10.25
2023-01-05T01:21:55.177Z,-10.24
2023-01-05T01:23:57.674Z,-10.26
2023-01-05T01:26:06.804Z,-10.28
2023-01-05T01:28:09.270Z,-10.27
2023-01-05T01:30:12.348Z,-10.29
2023-01-05T01:32:14.829Z,-10.31
2023-01-05T01:34:17.837Z,-10.29
2023-01-05T01:36:20.678Z,-10.28
2023-01-05T01:38:24.840Z,-10.24
2023-01-05T01:40:27.448Z,-10.23
2023-01-05T01:42:30.006Z,-10.18
2023-01-05T01:44:47.741Z,-10.14
2023-01-05T01:46:50.276Z,-10.17
2023-01-05T01:49:05.869Z,-10.09
2023-01-05T01:51:15.076Z,-10.07
2023-01-05T01:53:27.617Z,-10.04
2023-01-05T01:55:31.195Z,-10.02
2023-01-05T01:57:35.187Z,-9.97
2023-01-05T01:59:37.972Z,-9.97
2023-01-05T02:01:40.850Z,-9.92
2023-01-05T02:03:44.181Z,-9.89
2023-01-05T02:05:46.807Z,-9.85
2023-01-05T02:07:49.634Z,-9.82
2023-01-05T02:09:52.586Z,-9.79
2023-01-05T02:12:34.152Z,-9.79
2023-01-05T02:14:53.544Z,-9.79
2023-01-05T02:17:30.015Z,-9.76
2023-01-05T02:20:15.984Z,-9.76
2023-01-05T02:22:34.133Z,-9.72
2023-01-05T02:24:39.576Z,-9.71
2023-01-05T02:26:41.993Z,-9.69
2023-01-05T02:29:16.269Z,-9.72
2023-01-05T02:31:37.662Z,-9.67
2023-01-05T02:34:14.716Z,-9.65
2023-01-05T02:36:36.810Z,-9.66
2023-01-05T02:39:06.855Z,-9.84
2023-01-05T02:41:23.287Z,-9.96
2023-01-05T02:43:28.881Z,-10.01
2023-01-05T02:45:31.474Z,-10.04
2023-01-05T02:47:40.089Z,-10.01
2023-01-05T02:49:42.577Z,-10.00
2023-01-05T02:51:51.626Z,-10.01
2023-01-05T02:54:02.028Z,-9.97
2023-01-05T02:56:13.770Z,-9.98
2023-01-05T02:58:34.069Z,-10.00
2023-01-05T03:00:53.300Z,-9.96
2023-01-05T03:03:02.649Z,-9.98
2023-01-05T03:05:10.817Z,-10.05
2023-01-05T03:07:18.158Z,-9.95
2023-01-05T03:09:20.802Z,-9.92
2023-01-05T03:11:45.958Z,-9.93
2023-01-05T03:13:59.449Z,-9.90
2023-01-05T03:16:05.925Z,-9.90
2023-01-05T03:18:12.287Z,-9.88
2023-01-05T03:20:20.806Z,-9.88
2023-01-05T03:22:48.994Z,-9.87
2023-01-05T03:25:10.010Z,-9.86
2023-01-05T03:27:32.919Z,-9.86
2023-01-05T03:29:53.701Z,-9.84
2023-01-05T03:32:30.240Z,-9.83
2023-01-05T03:35:12.390Z,-9.83
2023-01-05T03:37:18.801Z,-9.86
2023-01-05T03:39:26.843Z,-9.88
2023-01-05T03:41:30.365Z,-9.87
2023-01-05T03:43:36.869Z,-9.87
2023-01-05T03:45:46.150Z,-9.85
2023-01-05T03:47:49.487Z,-9.82
2023-01-05T03:49:52.211Z,-9.77
2023-01-05T03:51:54.767Z,-9.73
2023-01-05T03:53:57.344Z,-9.71
2023-01-05T03:56:00.005Z,-9.69
2023-01-05T03:58:02.678Z,-9.69
2023-01-05T04:00:06.147Z,-9.66
2023-01-05T04:02:09.138Z,-9.65
2023-01-05T04:04:11.789Z,-9.57
2023-01-05T04:06:14.562Z,-9.54
2023-01-05T04:08:17.180Z,-9.52
2023-01-05T04:10:19.764Z,-9.43
2023-01-05T04:12:22.270Z,-9.40
2023-01-05T04:14:24.836Z,-9.34
2023-01-05T04:16:28.901Z,-9.33
2023-01-05T04:18:31.577Z,-9.34
2023-01-05T04:20:34.080Z,-9.36
2023-01-05T04:22:36.573Z,-9.37
2023-01-05T04:24:39.167Z,-9.45
2023-01-05T04:26:42.842Z,-9.49
2023-01-05T04:28:45.327Z,-9.53
2023-01-05T04:30:53.151Z,-9.65
2023-01-05T04:32:55.654Z,-9.63
2023-01-05T04:34:58.127Z,-9.69
2023-01-05T04:37:00.701Z,-9.74
2023-01-05T04:39:03.661Z,-9.76
2023-01-05T04:41:06.282Z,-9.84
2023-01-05T04:43:08.783Z,-9.88
2023-01-05T04:45:11.635Z,-9.87
2023-01-05T04:47:14.113Z,-9.88
2023-01-05T04:49:16.608Z,-9.87
2023-01-05T04:51:19.078Z,-9.82
2023-01-05T04:53:23.457Z,-9.84
2023-01-05T04:55:26.176Z,-9.80
2023-01-05T04:57:28.666Z,-9.76
2023-01-05T04:59:31.238Z,-9.70
2023-01-05T05:01:33.778Z,-9.76
2023-01-05T05:03:36.295Z,-9.72
2023-01-05T05:05:38.857Z,-9.68
2023-01-05T05:07:41.478Z,-9.69
2023-01-05T05:09:43.905Z,-9.76
2023-01-05T05:11:46.413Z,-9.75
2023-01-05T05:13:49.058Z,-9.81
2023-01-05T05:15:51.562Z,-9.86
2023-01-05T05:17:54.076Z,-9.89
2023-01-05T05:19:56.559Z,-9.96
2023-01-05T05:21:59.025Z,-9.97
2023-01-05T05:24:01.717Z,-10.05
2023-01-05T05:26:06.045Z,-10.14
2023-01-05T05:28:09.733Z,-10.12
2023-01-05T05:30:12.614Z,-10.15
2023-01-05T05:32:15.147Z,-10.14
2023-01-05T05:34:18.109Z,-10.13
2023-01-05T05:36:20.650Z,-10.07
2023-01-05T05:38:23.283Z,-10.06
2023-01-05T05:40:26.575Z,-10.03
2023-01-05T05:42:29.053Z,-9.96
2023-01-05T05:44:31.704Z,-9.96
2023-01-05T05:46:34.947Z,-9.87
2023-01-05T05:48:37.427Z,-9.89
2023-01-05T05:50:40.148Z,-9.83
2023-01-05T05:52:42.605Z,-9.80
2023-01-05T05:54:45.097Z,-9.73
2023-01-05T05:56:47.685Z,-9.69
2023-01-05T05:58:51.095Z,-9.64
2023-01-05T06:00:59.679Z,-9.58
2023-01-05T06:03:02.275Z,-9.58
2023-01-05T06:05:05.232Z,-9.71
2023-01-05T06:07:07.754Z,-9.76
2023-01-05T06:09:10.416Z,-9.77
2023-01-05T06:11:13.137Z,-9.83
2023-01-05T06:13:16.158Z,-9.77
2023-01-05T06:15:18.758Z,-9.78
2023-01-05T06:17:21.231Z,-9.79
2023-01-05T06:19:23.694Z,-9.74
2023-01-05T06:21:26.310Z,-9.72
2023-01-05T06:23:28.981Z,-9.71
2023-01-05T06:25:31.967Z,-9.66
2023-01-05T06:27:34.648Z,-9.57
2023-01-05T06:29:38.279Z,-9.54
2023-01-05T06:31:40.789Z,-9.46
2023-01-05T06:33:43.421Z,-9.42
2023-01-05T06:35:46.035Z,-9.39
2023-01-05T06:37:48.603Z,-9.35
2023-01-05T06:39:51.342Z,-9.24
2023-01-05T06:41:53.831Z,-9.15
2023-01-05T06:43:57.907Z,-9.13
2023-01-05T06:46:01.419Z,-9.10
2023-01-05T06:48:06.937Z,-9.01
2023-01-05T06:50:11.155Z,-8.98
2023-01-05T06:52:16.516Z,-9.04
2023-01-05T06:54:19.740Z,-9.05
2023-01-05T06:56:22.240Z,-9.11
2023-01-05T06:58:24.969Z,-9.22
2023-01-05T07:00:28.300Z,-9.16
2023-01-05T07:02:30.888Z,-9.12
2023-01-05T07:04:33.445Z,-9.02
2023-01-05T07:06:36.294Z,-8.92
2023-01-05T07:08:38.767Z,-8.87
2023-01-05T07:10:41.272Z,-8.82
2023-01-05T07:12:43.749Z,-8.78
2023-01-05T07:14:46.279Z,-8.74
2023-01-05T07:16:49.040Z,-8.68
2023-01-05T07:18:51.716Z,-8.69
2023-01-05T07:20:54.255Z,-8.74
2023-01-05T07:22:56.822Z,-8.76
2023-01-05T07:24:59.789Z,-8.72
2023-01-05T07:27:09.228Z,-8.74
2023-01-05T07:29:12.348Z,-8.70
2023-01-05T07:31:15.050Z,-8.64
2023-01-05T07:33:17.591Z,-8.61
2023-01-05T07:35:20.158Z,-8.57
2023-01-05T07:37:27.646Z,-8.58
2023-01-05T07:39:31.579Z,-8.53
2023-01-05T07:41:34.053Z,-8.43
2023-01-05T07:43:40.223Z,-8.42
2023-01-05T07:45:43.992Z,-8.32
2023-01-05T07:47:46.687Z,-8.25
2023-01-05T07:49:50.098Z,-8.26
2023-01-05T07:51:53.346Z,-8.25
2023-01-05T07:53:56.610Z,-8.22
2023-01-05T07:56:01.106Z,-8.14
2023-01-05T07:58:03.795Z,-8.10
2023-01-05T08:00:07.265Z,-8.05
2023-01-05T08:02:11.141Z,-7.92
2023-01-05T08:04:14.862Z,-7.79
2023-01-05T08:06:19.953Z,-7.69
2023-01-05T08:08:24.923Z,-7.61
2023-01-05T08:10:29.645Z,-7.49
2023-01-05T08:12:33.527Z,-7.44
2023-01-05T08:14:37.565Z,-7.35
2023-01-05T08:16:40.395Z,-7.33
2023-01-05T08:18:43.217Z,-7.20
2023-01-05T08:20:58.249Z,-7.24
2023-01-05T08:23:01.053Z,-7.09
2023-01-05T08:25:04.204Z,-7.01
2023-01-05T08:27:07.024Z,-6.85
2023-01-05T08:29:12.434Z,-6.76
2023-01-05T08:31:28.891Z,-6.81
2023-01-05T08:33:31.984Z,-6.75
2023-01-05T08:35:34.754Z,-6.73
2023-01-05T08:37:37.386Z,-6.67
2023-01-05T08:39:40.031Z,-6.58
2023-01-05T08:41:42.625Z,-6.49
2023-01-05T08:43:49.527Z,-6.54
2023-01-05T08:45:52.267Z,-6.64
2023-01-05T08:47:54.996Z,-6.51
2023-01-05T08:49:57.516Z,-6.49
2023-01-05T08:52:00.139Z,-6.45
2023-01-05T08:54:02.823Z,-6.34
2023-01-05T08:56:05.652Z,-6.33
2023-01-05T08:58:08.183Z,-6.34
2023-01-05T09:00:11.362Z,-6.36
2023-01-05T09:02:16.938Z,-6.26
2023-01-05T09:04:25.658Z,-6.31
2023-01-05T09:06:28.153Z,-6.39
2023-01-05T09:08:31.763Z,-6.32
2023-01-05T09:10:34.387Z,-6.26
2023-01-05T09:12:39.285Z,-6.15
2023-01-05T09:14:42.294Z,-6.11
2023-01-05T09:19:08.636Z,-6.19
2023-01-05T09:21:12.326Z,-6.14
2023-01-05T09:23:14.795Z,-6.07
2023-01-05T09:25:17.383Z,-6.10
2023-01-05T09:27:20.235Z,-6.06
2023-01-05T09:29:22.920Z,-6.04
2023-01-05T09:31:25.713Z,-6.02
2023-01-05T09:33:28.299Z,-5.96
2023-01-05T09:35:31.203Z,-5.93
2023-01-05T09:37:33.721Z,-6.03
2023-01-05T09:39:36.432Z,-5.96
2023-01-05T09:41:41.644Z,-5.89
2023-01-05T09:43:46.034Z,-5.85
2023-01-05T09:45:50.856Z,-5.84
2023-01-05T09:47:56.041Z,-5.84
2023-01-05T09:49:59.951Z,-5.84
2023-01-05T09:52:09.586Z,-5.89
2023-01-05T09:54:22.832Z,-5.92
2023-01-05T09:57:07.478Z,-5.95
2023-01-05T09:58:56.869Z,-5.92
2023-01-05T10:01:18.489Z,-5.84
2023-01-05T10:04:01.937Z,-5.77
2023-01-05T10:05:48.867Z,-5.80
2023-01-05T10:07:57.567Z,-5.79
2023-01-05T10:10:05.662Z,-5.73
2023-01-05T10:12:26.731Z,-5.67
2023-01-05T10:14:38.086Z,-5.63
2023-01-05T10:16:45.057Z,-5.63
2023-01-05T10:18:48.218Z,-5.56
2023-01-05T10:20:57.557Z,-5.59
2023-01-05T10:23:29.671Z,-5.68
2023-01-05T10:25:44.532Z,-5.66
2023-01-05T10:28:08.109Z,-5.67
2023-01-05T10:30:24.397Z,-5.68
2023-01-05T10:32:29.501Z,-5.68
2023-01-05T10:34:54.798Z,-5.68
2023-01-05T10:37:08.786Z,-5.69
2023-01-05T10:39:39.502Z,-5.79
2023-01-05T10:41:58.743Z,-5.73
2023-01-05T10:44:10.114Z,-5.75
2023-01-05T10:46:38.124Z,-5.82
2023-01-05T10:48:38.665Z,-5.92
2023-01-05T10:50:43.768Z,-5.96
2023-01-05T10:52:46.740Z,-5.98
2023-01-05T10:55:00.439Z,-6.02
2023-01-05T10:57:34.199Z,-5.87
2023-01-05T10:59:58.914Z,-5.74
2023-01-05T11:02:01.943Z,-5.70
2023-01-05T11:04:33.887Z,-5.65
2023-01-05T11:06:38.399Z,-5.62
2023-01-05T11:08:41.072Z,-5.56
2023-01-05T11:10:52.688Z,-5.54
2023-01-05T11:13:20.914Z,-5.55
2023-01-05T11:15:24.211Z,-5.53
2023-01-05T11:17:28.770Z,-5.50
2023-01-05T11:19:36.313Z,-5.46
2023-01-05T11:21:41.757Z,-5.38
2023-01-05T11:23:56.164Z,-5.35
2023-01-05T11:26:25.474Z,-5.32
2023-01-05T11:28:29.714Z,-5.39
2023-01-05T11:30:33.751Z,-5.41
2023-01-05T11:32:36.361Z,-5.43
2023-01-05T11:34:48.514Z,-5.38
2023-01-05T11:37:27.664Z,-5.33
2023-01-05T11:39:48.010Z,-5.28
2023-01-05T11:41:50.654Z,-5.38
2023-01-05T11:43:54.865Z,-5.35
2023-01-05T11:46:02.345Z,-5.32
2023-01-05T11:48:08.861Z,-5.37
2023-01-05T11:50:14.723Z,-5.36
2023-01-05T11:52:36.064Z,-5.35
2023-01-05T11:54:39.561Z,-5.37
2023-01-05T11:56:42.193Z,-5.41
2023-01-05T11:58:47.144Z,-5.44
2023-01-05T12:01:17.894Z,-5.47
2023-01-05T12:03:47.339Z,-5.51
2023-01-05T12:05:56.882Z,-5.51
2023-01-05T12:08:07.846Z,-5.51
2023-01-05T12:10:13.365Z,-5.55
2023-01-05T12:12:30.721Z,-5.57
2023-01-05T12:15:07.437Z,-5.61
2023-01-05T12:17:14.937Z,-5.63
2023-01-05T12:19:49.752Z,-5.63
2023-01-05T12:22:05.752Z,-5.64
2023-01-05T12:24:23.224Z,-5.65
2023-01-05T12:26:30.128Z,-5.70
2023-01-05T12:28:56.640Z,-5.76
2023-01-05T12:34:06.035Z,-5.85
2023-01-05T12:36:36.531Z,-5.98
2023-01-05T12:38:49.257Z,-6.06
2023-01-05T12:41:13.314Z,-6.07
2023-01-05T12:43:27.257Z,-6.17
2023-01-05T12:45:46.327Z,-6.22
2023-01-05T12:47:51.844Z,-6.24
2023-01-05T12:50:20.029Z,-6.29
2023-01-05T12:52:29.819Z,-6.33
2023-01-05T12:54:59.794Z,-6.38
2023-01-05T12:57:09.410Z,-6.44
2023-01-05T12:59:23.969Z,-6.47
2023-01-05T13:01:31.888Z,-6.48
2023-01-05T13:03:41.872Z,-6.47
2023-01-05T13:05:50.307Z,-6.49
2023-01-05T13:08:17.739Z,-6.51
2023-01-05T13:10:26.197Z,-6.51
2023-01-05T13:12:28.949Z,-6.51
2023-01-05T13:14:35.040Z,-6.56
2023-01-05T13:16:43.306Z,-6.61
2023-01-05T13:19:08.982Z,-6.60
2023-01-05T13:21:15.159Z,-6.59
2023-01-05T13:23:22.829Z,-6.60
2023-01-05T13:25:29.899Z,-6.66
2023-01-05T13:27:33.287Z,-6.65
2023-01-05T13:29:41.952Z,-6.71
2023-01-05T13:32:03.422Z,-6.73
2023-01-05T13:34:39.409Z,-6.76
2023-01-05T13:37:00.432Z,-6.83
2023-01-05T13:39:36.252Z,-6.85
2023-01-05T13:42:02.046Z,-6.84
2023-01-05T13:44:22.705Z,-6.87
2023-01-05T13:46:39.003Z,-6.86
2023-01-05T13:49:04.117Z,-6.88
2023-01-05T13:51:28.058Z,-6.92
2023-01-05T13:53:34.837Z,-6.97
2023-01-05T13:55:54.289Z,-6.99
2023-01-05T13:57:58.712Z,-6.96
2023-01-05T14:00:10.937Z,-6.95
2023-01-05T14:02:34.556Z,-7.01
2023-01-05T14:04:37.401Z,-7.07
2023-01-05T14:06:45.732Z,-7.14
2023-01-05T14:08:55.207Z,-7.18
2023-01-05T14:11:27.680Z,-7.19
2023-01-05T14:13:50.869Z,-7.25
2023-01-05T14:15:53.445Z,-7.27
2023-01-05T14:17:58.618Z,-7.35
2023-01-05T14:20:01.290Z,-7.33
2023-01-05T14:22:22.781Z,-7.38
2023-01-05T14:24:37.122Z,-7.53
2023-01-05T14:27:01.293Z,-7.54
2023-01-05T14:29:03.993Z,-7.53
2023-01-05T14:31:15.551Z,-7.52
2023-01-05T14:33:19.572Z,-7.52
2023-01-05T14:35:37.246Z,-7.55
2023-01-05T14:37:55.567Z,-7.60
2023-01-05T14:40:04.293Z,-7.58
2023-01-05T14:42:11.681Z,-7.63
2023-01-05T14:44:33.139Z,-7.61
2023-01-05T14:46:49.294Z,-7.59
2023-01-05T14:49:11.135Z,-7.60
2023-01-05T14:51:24.209Z,-7.62
2023-01-05T14:53:45.387Z,-7.66
2023-01-05T14:55:53.928Z,-7.69
2023-01-05T14:58:05.469Z,-7.68
2023-01-05T15:00:10.841Z,-7.73
2023-01-05T15:02:22.538Z,-7.68
2023-01-05T15:04:33.136Z,-7.65
2023-01-05T15:06:47.792Z,-7.64
2023-01-05T15:09:14.960Z,-7.63
2023-01-05T15:11:47.530Z,-7.69
2023-01-05T15:14:35.241Z,-7.73
2023-01-05T15:17:06.679Z,-7.74
2023-01-05T15:19:24.164Z,-7.72
2023-01-05T15:21:32.384Z,-7.74
2023-01-05T15:23:56.245Z,-7.78
2023-01-05T15:26:08.099Z,-7.78
2023-01-05T15:28:29.527Z,-7.83
2023-01-05T15:31:06.018Z,-7.89
2023-01-05T15:33:22.230Z,-7.95
2023-01-05T15:35:51.742Z,-7.99
2023-01-05T15:37:54.366Z,-8.01
2023-01-05T15:39:58.482Z,-8.00
2023-01-05T15:42:08.604Z,-8.01
2023-01-05T15:44:19.441Z,-7.98
2023-01-05T15:46:31.658Z,-8.04
2023-01-05T15:48:44.983Z,-8.11
2023-01-05T15:50:50.970Z,-8.14
2023-01-05T15:52:56.208Z,-8.15
2023-01-05T15:55:14.321Z,-8.15
2023-01-05T15:57:21.299Z,-8.17
2023-01-05T15:59:39.464Z,-8.15
2023-01-05T16:01:42.183Z,-8.16
2023-01-05T16:03:48.786Z,-8.19
2023-01-05T16:06:00.718Z,-8.19
2023-01-05T16:08:12.470Z,-8.15
2023-01-05T16:10:31.134Z,-8.13
2023-01-05T16:12:34.128Z,-8.10
2023-01-05T16:14:41.301Z,-8.11
2023-01-05T16:16:53.580Z,-8.09
2023-01-05T16:19:03.226Z,-8.11
2023-01-05T16:21:22.289Z,-8.12
2023-01-05T16:23:40.470Z,-8.11
2023-01-05T16:25:50.459Z,-8.08
2023-01-05T16:28:03.791Z,-8.09
2023-01-05T16:30:32.641Z,-8.11
2023-01-05T16:32:37.964Z,-8.14
2023-01-05T16:34:40.624Z,-8.12
2023-01-05T16:37:10.574Z,-8.10
2023-01-05T16:39:24.864Z,-8.11
2023-01-05T16:41:27.665Z,-8.15
2023-01-05T16:43:40.405Z,-8.16
2023-01-05T16:45:43.165Z,-8.14
2023-01-05T16:47:46.371Z,-8.18
2023-01-05T16:49:57.617Z,-8.23
2023-01-05T16:52:01.191Z,-8.26
2023-01-05T16:54:28.167Z,-8.33
2023-01-05T16:56:33.574Z,-8.37
2023-01-05T16:58:38.425Z,-8.36
2023-01-05T17:00:41.515Z,-8.45
2023-01-05T17:02:49.242Z,-8.47
2023-01-05T17:04:51.779Z,-8.46
2023-01-05T17:06:54.686Z,-8.45
2023-01-05T17:09:01.993Z,-8.46
2023-01-05T17:11:12.393Z,-8.50
2023-01-05T17:13:20.742Z,-8.47
2023-01-05T17:15:26.301Z,-8.46
2023-01-05T17:17:29.025Z,-8.45
2023-01-05T17:19:35.315Z,-8.45
2023-01-05T17:23:49.674Z,-8.48
2023-01-05T17:25:54.009Z,-8.49
2023-01-05T17:27:57.821Z,-8.51
2023-01-05T17:30:00.626Z,-8.46
2023-01-05T17:32:03.683Z,-8.47
2023-01-05T17:34:06.327Z,-8.44
2023-01-05T17:36:09.349Z,-8.42
2023-01-05T17:38:13.199Z,-8.41
2023-01-05T17:40:19.320Z,-8.39
2023-01-05T17:42:40.841Z,-8.41
2023-01-05T17:44:43.507Z,-8.41
2023-01-05T17:46:47.682Z,-8.41
2023-01-05T17:48:50.412Z,-8.41
2023-01-05T17:50:54.462Z,-8.43
2023-01-05T17:53:01.736Z,-8.47
2023-01-05T17:55:04.665Z,-8.48
2023-01-05T17:59:15.025Z,-8.57
2023-01-05T18:01:18.581Z,-8.56
2023-01-05T18:03:24.342Z,-8.57
2023-01-05T18:05:27.457Z,-8.57
2023-01-05T18:07:31.450Z,-8.61
2023-01-05T18:09:35.584Z,-8.61
2023-01-05T18:11:38.334Z,-8.63
2023-01-05T18:13:40.960Z,-8.72
2023-01-05T18:15:45.982Z,-8.79
2023-01-05T18:17:48.605Z,-8.81
2023-01-05T18:19:51.428Z,-8.77
2023-01-05T18:22:05.927Z,-8.77
2023-01-05T18:24:08.656Z,-8.73
2023-01-05T18:26:11.325Z,-8.75
2023-01-05T18:28:14.167Z,-8.74
2023-01-05T18:30:16.825Z,-8.67
2023-01-05T18:32:19.559Z,-8.68
2023-01-05T18:34:22.380Z,-8.64
2023-01-05T18:36:25.010Z,-8.68
2023-01-05T18:38:27.600Z,-8.70
2023-01-05T18:40:30.326Z,-8.73
2023-01-05T18:42:33.009Z,-8.79
2023-01-05T18:44:35.593Z,-8.82
2023-01-05T18:46:38.466Z,-8.93
2023-01-05T18:48:41.124Z,-9.00
2023-01-05T18:50:45.344Z,-8.99
2023-01-05T18:52:49.130Z,-9.00
2023-01-05T18:54:54.114Z,-9.08
2023-01-05T18:56:56.726Z,-9.16
2023-01-05T18:58:59.596Z,-9.20
2023-01-05T19:01:15.188Z,-9.24
2023-01-05T19:03:17.889Z,-9.30
2023-01-05T19:05:20.585Z,-9.36
2023-01-05T19:07:23.342Z,-9.40
2023-01-05T19:09:26.144Z,-9.41
2023-01-05T19:11:28.820Z,-9.41
2023-01-05T19:13:31.407Z,-9.47
2023-01-05T19:15:35.867Z,-9.50
2023-01-05T19:17:38.717Z,-9.52
2023-01-05T19:19:41.365Z,-9.54
2023-01-05T19:21:48.163Z,-9.57
2023-01-05T19:23:56.642Z,-9.59
2023-01-05T19:26:04.405Z,-9.62
2023-01-05T19:28:07.014Z,-9.63
2023-01-05T19:30:10.097Z,-9.63
2023-01-05T19:32:12.881Z,-9.65
2023-01-05T19:34:19.449Z,-9.63
2023-01-05T19:36:23.864Z,-9.61
2023-01-05T19:38:26.426Z,-9.63
2023-01-05T19:40:29.256Z,-9.59
2023-01-05T19:42:32.933Z,-9.60
2023-01-05T19:44:35.661Z,-9.58
2023-01-05T19:46:38.467Z,-9.57
2023-01-05T19:48:45.090Z,-9.61
2023-01-05T19:50:57.219Z,-9.68
2023-01-05T19:52:59.905Z,-9.71
2023-01-05T19:55:02.606Z,-9.76
2023-01-05T19:57:05.793Z,-9.81
2023-01-05T19:59:14.443Z,-9.81
2023-01-05T20:01:17.159Z,-9.85
2023-01-05T20:03:19.817Z,-9.85
2023-01-05T20:05:22.418Z,-9.84
2023-01-05T20:07:25.000Z,-9.81
2023-01-05T20:09:27.801Z,-9.75
2023-01-05T20:11:36.019Z,-9.71
2023-01-05T20:13:39.333Z,-9.66
2023-01-05T20:15:42.003Z,-9.61
2023-01-05T20:17:45.910Z,-9.56
2023-01-05T20:19:48.597Z,-9.54
2023-01-05T20:21:51.492Z,-9.53
2023-01-05T20:23:54.538Z,-9.51
2023-01-05T20:26:16.641Z,-9.52
2023-01-05T20:28:19.339Z,-9.51
2023-01-05T20:30:22.072Z,-9.55
2023-01-05T20:32:27.128Z,-9.58
2023-01-05T20:34:32.409Z,-9.59
2023-01-05T20:36:35.557Z,-9.64
2023-01-05T20:38:38.168Z,-9.65
2023-01-05T20:40:41.146Z,-9.67
2023-01-05T20:42:43.706Z,-9.67
2023-01-05T20:44:48.076Z,-9.69
2023-01-05T20:46:53.991Z,-9.72
2023-01-05T20:48:57.606Z,-9.76
2023-01-05T20:51:08.165Z,-9.80
2023-01-05T20:53:10.773Z,-9.79
2023-01-05T20:55:13.520Z,-9.77
2023-01-05T20:57:16.303Z,-9.79
2023-01-05T20:59:23.364Z,-9.79
2023-01-05T21:01:26.490Z,-9.74
2023-01-05T21:03:29.335Z,-9.75
2023-01-05T21:05:31.978Z,-9.80
2023-01-05T21:07:34.724Z,-9.85
2023-01-05T21:09:37.683Z,-9.90
2023-01-05T21:11:41.039Z,-9.94
2023-01-05T21:13:46.453Z,-10.01
2023-01-05T21:15:57.634Z,-10.06
2023-01-05T21:18:00.361Z,-10.08
2023-01-05T21:20:03.649Z,-10.17
2023-01-05T21:22:06.271Z,-10.19
2023-01-05T21:24:10.899Z,-10.24
2023-01-05T21:26:15.654Z,-10.30
2023-01-05T21:28:19.728Z,-10.30
2023-01-05T21:30:22.506Z,-10.35
2023-01-05T21:32:25.160Z,-10.36
2023-01-05T21:34:27.909Z,-10.44
2023-01-05T21:36:32.102Z,-10.43
2023-01-05T21:39:01.742Z,-10.38
2023-01-05T21:41:05.827Z,-10.41
2023-01-05T21:43:08.385Z,-10.43
2023-01-05T21:45:12.658Z,-10.52
2023-01-05T21:47:15.263Z,-10.53
2023-01-05T21:49:18.751Z,-10.52
2023-01-05T21:51:40.067Z,-10.50
2023-01-05T21:54:00.904Z,-10.53
2023-01-05T21:56:28.377Z,-10.51
2023-01-05T21:58:31.399Z,-10.49
2023-01-05T22:00:34.476Z,-10.47
2023-01-05T22:02:37.241Z,-10.52
2023-01-05T22:04:39.871Z,-10.53
2023-01-05T22:06:42.559Z,-10.49
2023-01-05T22:08:45.940Z,-10.47
2023-01-05T22:10:55.350Z,-10.44
2023-01-05T22:12:58.024Z,-10.38
2023-01-05T22:15:00.645Z,-10.44
2023-01-05T22:17:04.605Z,-10.45
2023-01-05T22:19:07.392Z,-10.46
2023-01-05T22:21:11.121Z,-10.43
2023-01-05T22:23:14.165Z,-10.43
2023-01-05T22:25:17.062Z,-10.47
2023-01-05T22:27:19.722Z,-10.51
2023-01-05T22:29:22.648Z,-10.51
2023-01-05T22:31:27.763Z,-10.54
2023-01-05T22:33:32.581Z,-10.61
2023-01-05T22:35:40.221Z,-10.66
2023-01-05T22:37:42.821Z,-10.70
2023-01-05T22:39:45.561Z,-10.76
2023-01-05T22:41:50.340Z,-10.79
2023-01-05T22:43:53.763Z,-10.80
2023-01-05T22:46:08.338Z,-10.85
2023-01-05T22:48:10.996Z,-10.82
2023-01-05T22:50:13.696Z,-10.85
2023-01-05T22:52:16.339Z,-11.02
2023-01-05T22:54:19.001Z,-11.08
2023-01-05T22:56:23.880Z,-11.16
2023-01-05T22:58:27.138Z,-11.28
2023-01-05T23:00:29.874Z,-11.37
2023-01-05T23:02:32.603Z,-11.33
2023-01-05T23:04:35.288Z,-11.60
2023-01-05T23:06:38.130Z,-11.86
2023-01-05T23:08:41.982Z,-12.06
2023-01-05T23:10:44.689Z,-12.18
2023-01-05T23:12:47.297Z,-12.23
2023-01-05T23:14:49.856Z,-12.32
2023-01-05T23:16:52.536Z,-12.37
2023-01-05T23:18:55.497Z,-12.45
2023-01-05T23:21:00.333Z,-12.49
2023-01-05T23:23:03.261Z,-12.70
2023-01-05T23:25:06.153Z,-12.83
2023-01-05T23:27:08.832Z,-12.89
2023-01-05T23:29:11.432Z,-12.99
2023-01-05T23:31:16.538Z,-13.04
2023-01-05T23:33:21.484Z,-13.13
2023-01-05T23:35:24.123Z,-13.17
2023-01-05T23:37:30.027Z,-13.28
2023-01-05T23:39:32.704Z,-13.23
2023-01-05T23:41:35.373Z,-13.22
2023-01-05T23:43:39.827Z,-13.28
2023-01-05T23:45:43.442Z,-13.29
2023-01-05T23:47:46.308Z,-13.28
2023-01-05T23:49:49.006Z,-13.31
2023-01-05T23:51:51.661Z,-13.40
2023-01-05T23:53:54.624Z,-13.52
2023-01-05T23:56:08.857Z,-13.73
2023-01-05T23:58:12.117Z,-13.92
